createdAt,value
2022-10-12T00:01:41.524Z,6.68
2022-10-12T00:04:44.339Z,8.07
2022-10-12T00:07:47.108Z,6.38
2022-10-12T00:10:50.245Z,7.35
2022-10-12T00:13:53.875Z,6.38
2022-10-12T00:16:58.182Z,6.65
2022-10-12T00:20:01.001Z,6.88
2022-10-12T00:23:04.030Z,8.82
2022-10-12T00:26:08.716Z,7.15
2022-10-12T00:29:11.501Z,6.75
2022-10-12T00:32:16.374Z,5.95
2022-10-12T00:35:19.196Z,7.00
2022-10-12T00:38:22.281Z,7.75
2022-10-12T00:41:27.095Z,6.22
2022-10-12T00:44:39.328Z,6.63
2022-10-12T00:47:49.717Z,6.90
2022-10-12T00:50:52.839Z,6.28
2022-10-12T00:54:01.091Z,6.55
2022-10-12T00:57:06.449Z,7.88
2022-10-12T01:00:11.891Z,6.72
2022-10-12T01:03:19.310Z,6.78
2022-10-12T01:06:22.363Z,7.20
2022-10-12T01:09:25.217Z,7.05
2022-10-12T01:12:28.744Z,5.88
2022-10-12T01:15:36.423Z,6.07
2022-10-12T01:18:48.950Z,6.95
2022-10-12T01:21:59.129Z,6.20
2022-10-12T01:25:15.160Z,5.68
2022-10-12T01:28:25.381Z,6.97
2022-10-12T01:31:36.676Z,6.30
2022-10-12T01:34:47.079Z,5.97
2022-10-12T01:37:59.277Z,5.88
2022-10-12T01:41:08.016Z,6.90
2022-10-12T01:44:10.817Z,6.28
2022-10-12T01:47:15.065Z,5.55
2022-10-12T01:50:18.783Z,6.32
2022-10-12T01:53:34.417Z,6.20
2022-10-12T01:56:48.148Z,5.72
2022-10-12T01:59:59.407Z,5.15
2022-10-12T02:03:14.217Z,5.68
2022-10-12T02:06:20.378Z,5.88
2022-10-12T02:09:27.694Z,6.22
2022-10-12T02:12:33.244Z,5.82
2022-10-12T02:15:38.575Z,6.07
2022-10-12T02:18:46.303Z,5.72
2022-10-12T02:21:51.316Z,5.47
2022-10-12T02:24:57.997Z,5.72
2022-10-12T02:28:06.898Z,5.82
2022-10-12T02:31:16.105Z,4.95
2022-10-12T02:34:26.156Z,5.40
2022-10-12T02:37:36.100Z,5.78
2022-10-12T02:40:43.369Z,5.65
2022-10-12T02:43:51.818Z,5.82
2022-10-12T02:46:56.084Z,5.78
2022-10-12T02:50:01.799Z,7.90
2022-10-12T02:53:05.565Z,5.45
2022-10-12T02:56:11.917Z,7.03
2022-10-12T02:59:15.424Z,6.32
2022-10-12T03:02:18.212Z,3.83
2022-10-12T03:05:23.421Z,5.00
2022-10-12T03:08:26.248Z,5.57
2022-10-12T03:11:29.202Z,4.10
2022-10-12T03:14:33.942Z,4.43
2022-10-12T03:17:36.997Z,4.22
2022-10-12T03:20:41.375Z,7.07
2022-10-12T03:23:44.161Z,4.53
2022-10-12T03:26:46.981Z,5.22
2022-10-12T03:29:49.759Z,5.95
2022-10-12T03:32:52.606Z,5.07
2022-10-12T03:35:56.752Z,4.82
2022-10-12T03:38:59.684Z,5.47
2022-10-12T03:42:02.884Z,4.88
2022-10-12T03:45:06.330Z,3.83
2022-10-12T03:48:09.106Z,5.13
2022-10-12T03:51:13.346Z,4.78
2022-10-12T03:54:16.342Z,4.60
2022-10-12T03:57:19.114Z,5.13
2022-10-12T04:00:22.192Z,4.53
2022-10-12T04:03:25.032Z,4.15
2022-10-12T04:06:29.280Z,5.18
2022-10-12T04:09:32.084Z,4.78
2022-10-12T04:12:34.902Z,4.88
2022-10-12T04:15:37.982Z,5.20
2022-10-12T04:18:40.827Z,5.35
2022-10-12T04:21:44.969Z,4.78
2022-10-12T04:24:47.821Z,4.28
2022-10-12T04:27:51.139Z,4.20
2022-10-12T04:30:53.922Z,5.30
2022-10-12T04:33:57.155Z,5.63
2022-10-12T04:37:01.325Z,4.93
2022-10-12T04:40:04.810Z,4.97
2022-10-12T04:43:07.581Z,4.50
2022-10-12T04:46:10.367Z,5.13
2022-10-12T04:49:13.360Z,5.13
2022-10-12T04:52:17.528Z,4.28
2022-10-12T04:55:20.293Z,3.95
2022-10-12T04:58:23.096Z,3.97
2022-10-12T05:01:26.008Z,4.55
2022-10-12T05:04:28.849Z,4.32
2022-10-12T05:07:33.040Z,4.00
2022-10-12T05:10:35.913Z,3.85
2022-10-12T05:13:38.698Z,4.70
2022-10-12T05:16:41.564Z,4.55
2022-10-12T05:19:44.356Z,5.35
2022-10-12T05:22:48.648Z,4.38
2022-10-12T05:25:51.560Z,4.53
2022-10-12T05:28:54.842Z,4.63
2022-10-12T05:31:57.800Z,4.25
2022-10-12T05:35:00.618Z,3.63
2022-10-12T05:38:05.058Z,3.63
2022-10-12T05:41:08.075Z,4.82
2022-10-12T05:44:10.918Z,4.30
2022-10-12T05:47:13.711Z,5.30
2022-10-12T05:50:16.619Z,3.67
2022-10-12T05:53:20.818Z,4.32
2022-10-12T05:56:23.561Z,3.55
2022-10-12T05:59:26.454Z,4.20
2022-10-12T06:02:29.257Z,4.68
2022-10-12T06:05:32.082Z,4.28
2022-10-12T06:08:36.675Z,4.93
2022-10-12T06:11:40.021Z,5.30
2022-10-12T06:14:42.773Z,4.30
2022-10-12T06:17:45.569Z,5.40
2022-10-12T06:20:49.405Z,3.95
2022-10-12T06:23:53.552Z,4.20
2022-10-12T06:26:56.345Z,5.95
2022-10-12T06:29:59.191Z,4.15
2022-10-12T06:33:02.018Z,3.83
2022-10-12T06:36:05.047Z,4.47
2022-10-12T06:39:09.997Z,4.05
2022-10-12T06:42:12.769Z,3.65
2022-10-12T06:45:25.257Z,3.45
2022-10-12T06:48:28.038Z,4.47
2022-10-12T06:51:30.945Z,4.47
2022-10-12T06:54:35.106Z,5.28
2022-10-12T06:57:38.205Z,4.38
2022-10-12T07:00:40.970Z,3.38
2022-10-12T07:03:43.760Z,5.28
2022-10-12T07:06:46.548Z,5.13
2022-10-12T07:09:50.864Z,4.55
2022-10-12T07:12:53.684Z,4.50
2022-10-12T07:15:56.474Z,4.30
2022-10-12T07:18:59.245Z,4.28
2022-10-12T07:22:02.419Z,3.22
2022-10-12T07:25:07.794Z,3.53
2022-10-12T07:28:10.848Z,3.58
2022-10-12T07:31:13.796Z,3.22
2022-10-12T07:34:16.656Z,5.18
2022-10-12T07:37:19.582Z,3.47
2022-10-12T07:40:23.777Z,3.97
2022-10-12T07:43:26.615Z,4.18
2022-10-12T07:46:29.378Z,3.13
2022-10-12T07:49:32.199Z,6.97
2022-10-12T07:52:35.041Z,4.13
2022-10-12T07:55:39.211Z,3.38
2022-10-12T07:58:42.134Z,3.70
2022-10-12T08:01:45.003Z,4.03
2022-10-12T08:04:47.829Z,3.50
2022-10-12T08:07:51.203Z,3.38
2022-10-12T08:10:57.501Z,5.25
2022-10-12T08:14:00.301Z,3.75
2022-10-12T08:17:03.117Z,4.35
2022-10-12T08:20:07.514Z,4.20
2022-10-12T08:23:10.313Z,3.40
2022-10-12T08:26:15.667Z,3.15
2022-10-12T08:29:18.641Z,4.03
2022-10-12T08:32:21.486Z,3.50
2022-10-12T08:35:24.287Z,4.07
2022-10-12T08:38:27.077Z,3.22
2022-10-12T08:41:44.317Z,3.55
2022-10-12T08:44:58.039Z,4.32
2022-10-12T08:48:08.521Z,3.50
2022-10-12T08:51:16.820Z,4.30
2022-10-12T08:54:23.111Z,4.13
2022-10-12T08:57:27.442Z,3.22
2022-10-12T09:00:34.812Z,4.15
2022-10-12T09:03:45.565Z,3.38
2022-10-12T09:06:51.909Z,4.53
2022-10-12T09:10:09.807Z,4.00
2022-10-12T09:13:29.517Z,4.45
2022-10-12T09:16:35.840Z,6.63
2022-10-12T09:19:42.101Z,4.50
2022-10-12T09:22:50.334Z,3.65
2022-10-12T09:25:55.947Z,3.60
2022-10-12T09:29:00.561Z,2.72
2022-10-12T09:32:29.383Z,3.65
2022-10-12T09:35:32.312Z,4.55
2022-10-12T09:38:35.568Z,3.05
2022-10-12T09:41:42.492Z,3.72
2022-10-12T09:44:49.477Z,3.15
2022-10-12T09:48:18.324Z,3.47
2022-10-12T09:51:21.233Z,3.20
2022-10-12T09:54:28.506Z,4.15
2022-10-12T09:57:33.804Z,3.58
2022-10-12T10:00:37.993Z,3.55
2022-10-12T10:03:40.893Z,3.30
2022-10-12T10:06:45.914Z,4.38
2022-10-12T10:09:49.343Z,4.50
2022-10-12T10:12:54.171Z,4.25
2022-10-12T10:16:06.835Z,4.97
2022-10-12T10:19:18.855Z,3.70
2022-10-12T10:22:22.936Z,3.70
2022-10-12T10:25:26.365Z,4.43
2022-10-12T10:28:31.755Z,5.38
2022-10-12T10:31:36.053Z,3.90
2022-10-12T10:34:39.146Z,4.18
2022-10-12T10:37:46.279Z,4.53
2022-10-12T10:40:52.535Z,3.42
2022-10-12T10:43:55.995Z,4.13
2022-10-12T10:47:03.321Z,4.22
2022-10-12T10:50:26.929Z,3.60
2022-10-12T10:53:32.913Z,4.10
2022-10-12T10:56:35.801Z,4.63
2022-10-12T10:59:45.837Z,5.00
2022-10-12T11:02:53.274Z,4.45
2022-10-12T11:06:04.646Z,4.55
2022-10-12T11:09:17.194Z,4.03
2022-10-12T11:12:30.256Z,5.00
2022-10-12T11:15:39.692Z,5.30
2022-10-12T11:18:47.313Z,4.82
2022-10-12T11:21:54.479Z,5.00
2022-10-12T11:25:07.059Z,4.80
2022-10-12T11:28:16.391Z,4.45
2022-10-12T11:31:25.638Z,4.63
2022-10-12T11:34:37.203Z,6.90
2022-10-12T11:37:43.823Z,4.93
2022-10-12T11:41:31.097Z,4.90
2022-10-12T11:44:18.971Z,4.65
2022-10-12T11:47:32.832Z,6.25
2022-10-12T11:50:39.777Z,4.40
2022-10-12T11:53:50.393Z,4.28
2022-10-12T11:56:58.012Z,4.68
2022-10-12T12:00:05.728Z,4.55
2022-10-12T12:03:23.173Z,5.43
2022-10-12T12:06:51.258Z,5.45
2022-10-12T12:09:54.614Z,5.70
2022-10-12T12:13:18.093Z,5.35
2022-10-12T12:16:27.825Z,4.72
2022-10-12T12:19:40.615Z,4.82
2022-10-12T12:22:52.189Z,5.50
2022-10-12T12:26:11.814Z,4.03
2022-10-12T12:29:29.784Z,4.38
2022-10-12T12:32:45.799Z,5.30
2022-10-12T12:35:55.501Z,4.13
2022-10-12T12:39:00.136Z,5.53
2022-10-12T12:42:05.141Z,4.72
2022-10-12T12:45:41.265Z,4.93
2022-10-12T12:49:07.338Z,6.22
2022-10-12T12:52:17.748Z,6.32
2022-10-12T12:55:52.722Z,5.40
2022-10-12T12:59:19.135Z,6.93
2022-10-12T13:02:48.063Z,7.30
2022-10-12T13:06:34.895Z,7.70
2022-10-12T13:09:59.485Z,5.82
2022-10-12T13:13:27.641Z,7.90
2022-10-12T13:20:19.437Z,6.78
2022-10-12T13:23:25.420Z,6.22
2022-10-12T13:26:32.142Z,7.82
2022-10-12T13:29:42.385Z,7.47
2022-10-12T13:32:50.961Z,8.13
2022-10-12T13:35:57.482Z,6.07
2022-10-12T13:39:07.920Z,5.93
2022-10-12T13:42:16.052Z,6.35
2022-10-12T13:45:21.270Z,6.50
2022-10-12T13:48:46.320Z,5.60
2022-10-12T13:51:50.457Z,5.88
2022-10-12T13:54:53.420Z,5.68
2022-10-12T13:57:56.291Z,5.93
2022-10-12T14:01:00.819Z,6.15
2022-10-12T14:04:05.638Z,7.65
2022-10-12T14:07:16.295Z,7.18
2022-10-12T14:10:22.785Z,6.13
2022-10-12T14:13:28.745Z,6.70
2022-10-12T14:16:33.010Z,6.30
2022-10-12T14:19:45.760Z,6.15
2022-10-12T14:22:49.897Z,5.72
2022-10-12T14:25:54.298Z,5.90
2022-10-12T14:28:58.218Z,7.85
2022-10-12T14:32:03.813Z,6.70
2022-10-12T14:35:20.903Z,6.53
2022-10-12T14:38:38.819Z,6.30
2022-10-12T14:41:50.105Z,6.65
2022-10-12T14:44:53.258Z,6.70
2022-10-12T14:47:59.534Z,5.93
2022-10-12T14:51:02.415Z,6.60
2022-10-12T14:54:06.167Z,6.25
2022-10-12T14:57:13.970Z,6.00
2022-10-12T15:00:18.885Z,5.30
2022-10-12T15:03:23.165Z,6.00
2022-10-12T15:06:25.995Z,5.55
2022-10-12T15:09:28.936Z,5.90
2022-10-12T15:12:32.001Z,5.55
2022-10-12T15:15:42.284Z,7.15
2022-10-12T15:18:46.681Z,6.10
2022-10-12T15:21:49.556Z,6.93
2022-10-12T15:24:53.660Z,7.45
2022-10-12T15:27:56.479Z,6.95
2022-10-12T15:31:16.977Z,7.60
2022-10-12T15:34:21.995Z,7.57
2022-10-12T15:37:30.173Z,7.25
2022-10-12T15:40:34.423Z,7.85
2022-10-12T15:43:39.699Z,7.63
2022-10-12T15:46:45.497Z,7.40
2022-10-12T15:49:49.645Z,6.70
2022-10-12T15:52:54.206Z,7.82
2022-10-12T15:55:57.272Z,8.73
2022-10-12T15:59:00.170Z,9.27
2022-10-12T16:02:03.013Z,7.30
2022-10-12T16:05:15.973Z,7.63
2022-10-12T16:08:18.751Z,7.55
2022-10-12T16:11:21.963Z,9.38
2022-10-12T16:14:24.768Z,8.48
2022-10-12T16:17:27.524Z,9.00
2022-10-12T16:20:34.289Z,9.07
2022-10-12T16:23:38.391Z,8.07
2022-10-12T16:26:44.856Z,9.55
2022-10-12T16:29:47.996Z,8.48
2022-10-12T16:32:50.919Z,9.88
2022-10-12T16:35:55.398Z,8.93
2022-10-12T16:38:58.277Z,8.88
2022-10-12T16:42:01.107Z,10.32
2022-10-12T16:45:04.805Z,9.40
2022-10-12T16:48:07.788Z,9.55
2022-10-12T16:51:13.859Z,9.52
2022-10-12T16:54:16.838Z,9.77
2022-10-12T16:57:19.674Z,10.57
2022-10-12T17:00:22.623Z,9.82
2022-10-12T17:03:25.484Z,9.40
2022-10-12T17:06:29.925Z,7.93
2022-10-12T17:09:32.981Z,11.82
2022-10-12T17:12:36.076Z,9.90
2022-10-12T17:15:41.520Z,9.50
2022-10-12T17:18:44.363Z,10.35
2022-10-12T17:21:49.276Z,9.35
2022-10-12T17:24:52.043Z,8.90
2022-10-12T17:27:54.838Z,9.35
2022-10-12T17:30:57.564Z,12.00
2022-10-12T17:34:02.736Z,9.57
2022-10-12T17:37:08.418Z,8.32
2022-10-12T17:40:11.729Z,9.70
2022-10-12T17:43:14.576Z,11.18
2022-10-12T17:46:22.578Z,10.70
2022-10-12T17:49:25.813Z,10.82
2022-10-12T17:52:29.937Z,11.68
2022-10-12T17:55:48.113Z,11.57
2022-10-12T17:58:55.362Z,12.20
2022-10-12T18:01:58.196Z,10.65
2022-10-12T18:05:00.997Z,12.40
2022-10-12T18:08:05.686Z,12.93
2022-10-12T18:11:08.943Z,14.07
2022-10-12T18:14:13.099Z,14.23
2022-10-12T18:17:15.891Z,12.23
2022-10-12T18:20:19.433Z,12.80
2022-10-12T18:23:23.580Z,14.63
2022-10-12T18:26:27.850Z,16.23
2022-10-12T18:29:30.645Z,14.90
2022-10-12T18:32:33.482Z,16.10
2022-10-12T18:35:36.253Z,16.35
2022-10-12T18:38:40.690Z,14.75
2022-10-12T18:41:43.591Z,14.48
2022-10-12T18:44:46.511Z,15.88
2022-10-12T18:47:49.419Z,16.42
2022-10-12T18:50:53.337Z,16.00
2022-10-12T18:53:58.696Z,15.40
2022-10-12T18:57:02.486Z,13.82
2022-10-12T19:00:06.213Z,18.27
2022-10-12T19:03:12.486Z,15.93
2022-10-12T19:06:17.551Z,17.75
2022-10-12T19:09:21.875Z,16.90
2022-10-12T19:12:24.688Z,17.05
2022-10-12T19:15:28.533Z,19.98
2022-10-12T19:18:31.383Z,18.30
2022-10-12T19:21:34.828Z,18.60
2022-10-12T19:24:39.014Z,19.33
2022-10-12T19:27:41.992Z,19.48
2022-10-12T19:30:44.859Z,18.17
2022-10-12T19:33:48.464Z,18.80
2022-10-12T19:36:51.706Z,16.60
2022-10-12T19:39:55.919Z,16.98
2022-10-12T19:42:58.749Z,16.15
2022-10-12T19:46:03.702Z,18.85
2022-10-12T19:49:06.636Z,16.67
2022-10-12T19:52:09.452Z,17.50
2022-10-12T19:55:13.600Z,18.23
2022-10-12T19:58:16.436Z,17.38
2022-10-12T20:01:20.997Z,18.88
2022-10-12T20:04:24.166Z,17.38
2022-10-12T20:07:26.983Z,19.20
2022-10-12T20:10:31.191Z,17.73
2022-10-12T20:13:34.681Z,18.67
2022-10-12T20:16:37.826Z,18.83
2022-10-12T20:19:40.663Z,15.85
2022-10-12T20:22:43.421Z,17.95
2022-10-12T20:25:50.023Z,16.45
2022-10-12T20:28:54.720Z,14.30
2022-10-12T20:31:57.532Z,18.92
2022-10-12T20:35:01.637Z,18.40
2022-10-12T20:38:05.235Z,18.20
2022-10-12T20:41:11.289Z,18.40
2022-10-12T20:44:14.162Z,19.15
2022-10-12T20:47:17.648Z,21.38
2022-10-12T20:50:20.778Z,17.50
2022-10-12T20:53:23.627Z,21.38
2022-10-12T20:56:28.141Z,18.95
2022-10-12T20:59:31.508Z,19.50
2022-10-12T21:02:34.461Z,16.65
2022-10-12T21:05:37.265Z,19.10
2022-10-12T21:08:40.928Z,19.63
2022-10-12T21:11:45.137Z,18.27
2022-10-12T21:14:47.908Z,18.85
2022-10-12T21:17:51.087Z,20.88
2022-10-12T21:20:55.732Z,22.33
2022-10-12T21:24:01.155Z,18.23
2022-10-12T21:27:05.748Z,19.65
2022-10-12T21:30:09.551Z,20.23
2022-10-12T21:33:13.189Z,18.13
2022-10-12T21:36:18.393Z,17.27
2022-10-12T21:39:21.175Z,20.23
2022-10-12T21:42:25.358Z,19.05
2022-10-12T21:45:28.309Z,15.57
2022-10-12T21:48:31.195Z,15.35
2022-10-12T21:51:33.975Z,15.85
2022-10-12T21:54:36.778Z,15.10
2022-10-12T21:57:40.916Z,14.48
2022-10-12T22:00:43.729Z,14.88
2022-10-12T22:03:48.053Z,15.32
2022-10-12T22:06:50.886Z,14.02
2022-10-12T22:09:53.652Z,14.18
2022-10-12T22:12:57.829Z,13.60
2022-10-12T22:16:01.620Z,13.32
2022-10-12T22:19:07.572Z,14.98
2022-10-12T22:22:10.390Z,14.60
2022-10-12T22:25:13.196Z,14.00
2022-10-12T22:28:17.481Z,14.93
2022-10-12T22:31:21.743Z,12.85
2022-10-12T22:34:24.552Z,13.60
2022-10-12T22:37:27.349Z,14.50
2022-10-12T22:40:30.171Z,13.70
2022-10-12T22:43:35.830Z,13.52
2022-10-12T22:46:38.602Z,12.57
2022-10-12T22:49:41.396Z,12.82
2022-10-12T22:52:44.161Z,12.57
2022-10-12T22:55:48.210Z,13.20
2022-10-12T22:58:56.458Z,12.68
2022-10-12T23:01:59.283Z,13.45
2022-10-12T23:05:03.389Z,13.88
2022-10-12T23:08:06.330Z,11.88
2022-10-12T23:11:11.868Z,11.95
2022-10-12T23:14:16.027Z,10.88
2022-10-12T23:17:18.842Z,11.35
2022-10-12T23:20:21.662Z,10.82
2022-10-12T23:23:25.888Z,12.27
2022-10-12T23:26:30.358Z,11.85
2022-10-12T23:29:34.566Z,12.52
2022-10-12T23:32:37.755Z,14.23
2022-10-12T23:35:40.536Z,10.70
2022-10-12T23:38:45.147Z,10.93
2022-10-12T23:41:47.931Z,12.88
2022-10-12T23:44:52.073Z,12.23
2022-10-12T23:47:54.850Z,11.30
2022-10-12T23:50:57.811Z,12.55
2022-10-12T23:54:00.921Z,11.55
2022-10-12T23:57:03.718Z,11.93
